createdAt,value
2018-12-11T00:02:14.141Z,4.20
2018-12-11T00:04:43.888Z,4.20
2018-12-11T00:07:12.877Z,4.20
2018-12-11T00:09:42.647Z,4.10
2018-12-11T00:12:12.419Z,4.10
2018-12-11T00:14:42.398Z,4.10
2018-12-11T00:17:12.760Z,4.10
2018-12-11T00:19:42.653Z,4.10
2018-12-11T00:22:13.045Z,4.10
2018-12-11T00:24:42.949Z,4.00
2018-12-11T00:27:13.504Z,4.00
2018-12-11T00:29:43.884Z,4.00
2018-12-11T00:32:13.745Z,4.00
2018-12-11T00:34:43.933Z,4.00
2018-12-11T00:37:13.644Z,3.90
2018-12-11T00:39:43.467Z,4.00
2018-12-11T00:42:13.370Z,4.00
2018-12-11T00:44:43.282Z,4.00
2018-12-11T00:47:13.130Z,4.10
2018-12-11T00:49:42.969Z,4.10
2018-12-11T00:52:12.703Z,4.10
2018-12-11T00:54:42.471Z,4.10
2018-12-11T00:57:12.201Z,4.10
2018-12-11T00:59:42.878Z,4.00
2018-12-11T01:02:12.721Z,4.10
2018-12-11T01:04:42.632Z,4.00
2018-12-11T01:07:12.396Z,4.00
2018-12-11T01:09:42.155Z,4.00
2018-12-11T01:12:12.511Z,3.90
2018-12-11T01:14:42.467Z,3.90
2018-12-11T01:17:12.360Z,3.90
2018-12-11T01:19:42.840Z,3.90
2018-12-11T01:22:12.737Z,4.00
2018-12-11T01:24:42.635Z,4.00
2018-12-11T01:27:12.319Z,4.00
2018-12-11T01:29:42.169Z,4.00
2018-12-11T01:32:11.900Z,4.00
2018-12-11T01:34:41.786Z,4.00
2018-12-11T01:37:11.492Z,4.10
2018-12-11T01:39:41.636Z,4.10
2018-12-11T01:42:11.370Z,4.00
2018-12-11T01:44:41.248Z,4.00
2018-12-11T01:47:10.932Z,4.00
2018-12-11T01:49:41.619Z,4.00
2018-12-11T01:52:11.366Z,4.00
2018-12-11T01:54:41.121Z,4.00
2018-12-11T01:57:10.880Z,4.00
2018-12-11T01:59:40.640Z,4.00
2018-12-11T02:02:10.420Z,4.00
2018-12-11T02:04:40.844Z,4.00
2018-12-11T02:07:10.574Z,4.00
2018-12-11T02:09:40.395Z,4.00
2018-12-11T02:12:10.208Z,4.00
2018-12-11T02:14:40.089Z,4.00
2018-12-11T02:17:10.023Z,4.00
2018-12-11T02:19:40.120Z,4.10
2018-12-11T02:22:10.464Z,4.10
2018-12-11T02:24:40.500Z,4.10
2018-12-11T02:27:10.301Z,4.10
2018-12-11T02:29:40.180Z,4.10
2018-12-11T02:32:10.362Z,4.20
2018-12-11T02:34:40.289Z,4.20
2018-12-11T02:37:09.927Z,4.30
2018-12-11T02:39:39.682Z,4.30
2018-12-11T02:42:09.504Z,4.30
2018-12-11T02:44:39.512Z,4.40
2018-12-11T02:47:09.404Z,4.30
2018-12-11T02:49:39.274Z,4.30
2018-12-11T02:52:09.042Z,4.30
2018-12-11T02:54:38.873Z,4.20
2018-12-11T02:57:08.616Z,4.20
2018-12-11T02:59:38.457Z,4.10
2018-12-11T03:02:08.280Z,4.10
2018-12-11T03:04:37.949Z,4.10
2018-12-11T03:07:07.688Z,4.00
2018-12-11T03:09:37.709Z,4.00
2018-12-11T03:12:07.536Z,4.00
2018-12-11T03:14:37.492Z,4.00
2018-12-11T03:17:07.422Z,4.00
2018-12-11T03:19:37.307Z,4.00
2018-12-11T03:22:07.605Z,4.00
2018-12-11T03:24:38.041Z,4.00
2018-12-11T03:27:07.762Z,4.00
2018-12-11T03:29:37.600Z,4.00
2018-12-11T03:32:07.390Z,4.00
2018-12-11T03:34:37.288Z,4.00
2018-12-11T03:37:07.134Z,4.00
2018-12-11T03:39:36.976Z,4.10
2018-12-11T03:42:07.250Z,4.00
2018-12-11T03:44:37.302Z,4.10
2018-12-11T03:47:06.974Z,4.00
2018-12-11T03:49:37.004Z,4.00
2018-12-11T03:52:06.796Z,4.00
2018-12-11T03:54:36.781Z,4.10
2018-12-11T03:57:07.646Z,4.10
2018-12-11T03:59:37.389Z,4.10
2018-12-11T04:02:07.328Z,4.10
2018-12-11T04:04:37.344Z,4.00
2018-12-11T04:07:07.030Z,4.00
2018-12-11T04:09:36.815Z,4.00
2018-12-11T04:12:06.987Z,4.00
2018-12-11T04:14:37.317Z,4.00
2018-12-11T04:17:07.328Z,3.90
2018-12-11T04:19:37.354Z,3.90
2018-12-11T04:22:07.011Z,3.80
2018-12-11T04:24:36.821Z,3.80
2018-12-11T04:27:06.664Z,3.80
2018-12-11T04:29:36.349Z,3.80
2018-12-11T04:32:06.069Z,3.80
2018-12-11T04:34:35.807Z,3.80
2018-12-11T04:37:05.701Z,3.80
2018-12-11T04:39:35.700Z,3.80
2018-12-11T04:42:05.667Z,3.90
2018-12-11T04:44:35.553Z,3.90
2018-12-11T04:47:05.253Z,3.90
2018-12-11T04:49:35.799Z,3.90
2018-12-11T04:52:05.518Z,4.00
2018-12-11T04:54:35.396Z,4.00
2018-12-11T04:57:06.665Z,4.10
2018-12-11T04:59:36.454Z,4.10
2018-12-11T05:02:06.454Z,4.10
2018-12-11T05:04:36.323Z,4.20
2018-12-11T05:07:06.264Z,4.20
2018-12-11T05:09:36.011Z,4.20
2018-12-11T05:12:05.745Z,4.20
2018-12-11T05:14:35.454Z,4.20
2018-12-11T05:17:05.298Z,4.20
2018-12-11T05:19:35.064Z,4.20
2018-12-11T05:22:04.884Z,4.20
2018-12-11T05:24:34.681Z,4.30
2018-12-11T05:27:05.663Z,4.30
2018-12-11T05:29:35.657Z,4.30
2018-12-11T05:32:06.022Z,4.30
2018-12-11T05:34:35.791Z,4.30
2018-12-11T05:37:05.997Z,4.30
2018-12-11T05:39:35.808Z,4.30
2018-12-11T05:42:05.702Z,4.30
2018-12-11T05:44:35.532Z,4.30
2018-12-11T05:47:05.516Z,4.30
2018-12-11T05:49:35.297Z,4.30
2018-12-11T05:52:05.020Z,4.30
2018-12-11T05:54:35.044Z,4.30
2018-12-11T05:57:04.853Z,4.30
2018-12-11T05:59:34.588Z,4.40
2018-12-11T06:02:04.360Z,4.50
2018-12-11T06:04:34.329Z,4.50
2018-12-11T06:07:04.821Z,4.40
2018-12-11T06:09:34.600Z,4.40
2018-12-11T06:12:04.624Z,4.40
2018-12-11T06:14:34.309Z,4.40
2018-12-11T06:17:04.697Z,4.40
2018-12-11T06:19:34.481Z,4.50
2018-12-11T06:22:04.287Z,4.40
2018-12-11T06:24:34.241Z,4.50
2018-12-11T06:27:04.214Z,4.50
2018-12-11T06:29:33.925Z,4.50
2018-12-11T06:32:04.364Z,4.50
2018-12-11T06:34:35.013Z,4.50
2018-12-11T06:37:04.800Z,4.50
2018-12-11T06:39:34.696Z,4.40
2018-12-11T06:42:04.584Z,4.40
2018-12-11T06:44:34.412Z,4.40
2018-12-11T06:47:04.696Z,4.30
2018-12-11T06:49:34.566Z,4.30
2018-12-11T06:52:05.309Z,4.30
2018-12-11T06:54:35.011Z,4.40
2018-12-11T06:57:05.405Z,4.40
2018-12-11T06:59:35.372Z,4.30
2018-12-11T07:02:05.578Z,4.30
2018-12-11T07:04:35.598Z,4.30
2018-12-11T07:07:05.548Z,4.20
2018-12-11T07:09:35.450Z,4.20
2018-12-11T07:12:06.029Z,4.30
2018-12-11T07:14:35.820Z,4.30
2018-12-11T07:17:05.646Z,4.30
2018-12-11T07:19:35.402Z,4.30
2018-12-11T07:22:05.244Z,4.20
2018-12-11T07:24:35.117Z,4.30
2018-12-11T07:27:05.213Z,4.30
2018-12-11T07:29:35.144Z,4.30
2018-12-11T07:32:05.506Z,4.30
2018-12-11T07:34:35.185Z,4.30
2018-12-11T07:37:04.944Z,4.30
2018-12-11T07:39:34.656Z,4.30
2018-12-11T07:42:04.872Z,4.30
2018-12-11T07:47:23.445Z,4.30
2018-12-11T07:49:53.214Z,4.20
2018-12-11T07:52:23.660Z,4.20
2018-12-11T07:54:53.438Z,4.30
2018-12-11T07:57:23.228Z,4.30
2018-12-11T07:59:52.964Z,4.30
2018-12-11T08:02:22.849Z,4.30
2018-12-11T08:04:52.592Z,4.30
2018-12-11T08:07:22.421Z,4.40
2018-12-11T08:09:52.218Z,4.40
2018-12-11T08:12:22.073Z,4.50
2018-12-11T08:14:51.772Z,4.50
2018-12-11T08:17:21.660Z,4.50
2018-12-11T08:19:51.554Z,4.60
2018-12-11T08:22:21.555Z,4.60
2018-12-11T08:24:51.423Z,4.70
2018-12-11T08:27:21.138Z,4.70
2018-12-11T08:29:51.761Z,4.70
2018-12-11T08:32:21.482Z,4.70
2018-12-11T08:34:52.608Z,4.70
2018-12-11T08:37:22.576Z,4.70
2018-12-11T08:39:52.640Z,4.80
2018-12-11T08:42:22.573Z,4.80
2018-12-11T08:44:54.335Z,5.00
2018-12-11T08:47:24.332Z,5.00
2018-12-11T08:49:54.216Z,5.00
2018-12-11T08:52:24.004Z,5.00
2018-12-11T08:54:53.661Z,5.00
2018-12-11T08:57:23.405Z,5.00
2018-12-11T08:59:53.313Z,5.00
2018-12-11T09:02:23.973Z,5.00
2018-12-11T09:04:54.353Z,4.90
2018-12-11T09:07:24.278Z,4.90
2018-12-11T09:09:54.133Z,4.90
2018-12-11T09:12:24.025Z,4.90
2018-12-11T09:14:53.940Z,4.80
2018-12-11T09:17:24.014Z,4.80
2018-12-11T09:19:53.804Z,4.80
2018-12-11T09:22:24.262Z,4.80
2018-12-11T09:24:54.158Z,4.90
2018-12-11T09:27:24.059Z,4.90
2018-12-11T09:29:53.862Z,5.00
2018-12-11T09:32:23.845Z,5.00
2018-12-11T09:34:53.528Z,5.10
2018-12-11T09:37:23.361Z,5.20
2018-12-11T09:39:53.089Z,5.30
2018-12-11T09:42:27.856Z,5.40
2018-12-11T09:44:54.657Z,5.50
2018-12-11T09:47:25.485Z,5.40
2018-12-11T09:49:55.473Z,5.40
2018-12-11T09:52:25.344Z,5.40
2018-12-11T09:54:55.063Z,5.40
2018-12-11T09:57:24.948Z,5.40
2018-12-11T09:59:55.563Z,5.40
2018-12-11T10:02:26.259Z,5.40
2018-12-11T10:04:56.132Z,5.40
2018-12-11T10:07:26.550Z,5.50
2018-12-11T10:09:56.308Z,5.50
2018-12-11T10:12:26.181Z,5.50
2018-12-11T10:14:56.021Z,5.50
2018-12-11T10:17:25.884Z,5.50
2018-12-11T10:19:55.722Z,5.60
2018-12-11T10:22:25.546Z,5.60
2018-12-11T10:24:55.376Z,5.80
2018-12-11T10:27:25.141Z,5.90
2018-12-11T10:29:54.946Z,6.00
2018-12-11T10:32:24.776Z,6.10
2018-12-11T10:34:54.513Z,6.10
2018-12-11T10:37:24.658Z,6.10
2018-12-11T10:39:54.430Z,6.10
2018-12-11T10:42:24.397Z,6.10
2018-12-11T10:44:54.144Z,6.00
2018-12-11T10:47:24.065Z,6.10
2018-12-11T10:49:53.774Z,6.10
2018-12-11T10:52:23.704Z,6.10
2018-12-11T10:54:53.560Z,6.20
2018-12-11T10:57:23.664Z,6.30
2018-12-11T10:59:53.480Z,6.40
2018-12-11T11:02:23.572Z,6.40
2018-12-11T11:04:53.276Z,6.60
2018-12-11T11:07:23.217Z,6.70
2018-12-11T11:09:53.215Z,6.80
2018-12-11T11:12:22.942Z,6.80
2018-12-11T11:14:52.945Z,6.90
2018-12-11T11:17:22.828Z,7.00
2018-12-11T11:19:52.792Z,7.20
2018-12-11T11:22:22.612Z,7.20
2018-12-11T11:24:53.102Z,7.10
2018-12-11T11:27:23.022Z,6.90
2018-12-11T11:29:52.984Z,6.60
2018-12-11T11:32:22.748Z,6.30
2018-12-11T11:34:53.070Z,6.20
2018-12-11T11:37:22.881Z,6.20
2018-12-11T11:39:52.666Z,6.20
2018-12-11T11:42:22.831Z,6.20
2018-12-11T11:44:52.666Z,6.20
2018-12-11T11:47:22.464Z,6.30
2018-12-11T11:49:52.311Z,6.30
2018-12-11T11:52:22.493Z,6.40
2018-12-11T11:54:52.398Z,6.50
2018-12-11T11:57:22.213Z,6.50
2018-12-11T11:59:52.173Z,6.50
2018-12-11T12:02:22.041Z,6.50
2018-12-11T12:04:51.836Z,6.40
2018-12-11T12:07:21.658Z,6.50
2018-12-11T12:09:51.889Z,6.50
2018-12-11T12:12:21.676Z,6.40
2018-12-11T12:14:52.183Z,6.50
2018-12-11T12:17:22.210Z,6.50
2018-12-11T12:19:52.804Z,6.40
2018-12-11T12:22:23.095Z,6.50
2018-12-11T12:24:52.730Z,6.50
2018-12-11T12:27:22.519Z,6.50
2018-12-11T12:29:52.742Z,6.50
2018-12-11T12:32:22.637Z,6.60
2018-12-11T12:34:52.758Z,6.60
2018-12-11T12:37:22.576Z,6.60
2018-12-11T12:39:52.242Z,6.70
2018-12-11T12:42:22.114Z,6.70
2018-12-11T12:44:51.949Z,6.60
2018-12-11T12:47:21.737Z,6.70
2018-12-11T12:49:51.473Z,6.60
2018-12-11T12:52:21.258Z,6.50
2018-12-11T12:54:51.040Z,6.50
2018-12-11T12:57:20.967Z,6.50
2018-12-11T12:59:50.864Z,6.60
2018-12-11T13:02:20.717Z,6.60
2018-12-11T13:04:50.548Z,6.70
2018-12-11T13:07:20.333Z,6.80
2018-12-11T13:09:50.281Z,7.00
2018-12-11T13:12:20.152Z,7.00
2018-12-11T13:14:50.074Z,7.20
2018-12-11T13:17:20.020Z,7.40
2018-12-11T13:19:49.841Z,7.40
2018-12-11T13:22:20.774Z,7.60
2018-12-11T13:24:50.929Z,7.60
2018-12-11T13:27:20.848Z,7.60
2018-12-11T13:29:50.698Z,7.50
2018-12-11T13:32:20.503Z,7.50
2018-12-11T13:34:50.430Z,7.40
2018-12-11T13:37:20.917Z,7.30
2018-12-11T13:39:50.736Z,7.30
2018-12-11T13:42:20.925Z,7.20
2018-12-11T13:44:50.844Z,7.20
2018-12-11T13:47:21.226Z,7.10
2018-12-11T13:49:51.240Z,7.10
2018-12-11T13:52:21.508Z,7.00
2018-12-11T13:54:51.288Z,7.00
2018-12-11T13:57:21.228Z,7.00
2018-12-11T13:59:51.055Z,7.00
2018-12-11T14:02:20.837Z,7.00
2018-12-11T14:04:51.261Z,7.00
2018-12-11T14:07:21.310Z,7.00
2018-12-11T14:09:51.348Z,7.00
2018-12-11T14:12:21.101Z,7.00
2018-12-11T14:14:50.835Z,7.10
2018-12-11T14:17:21.307Z,7.10
2018-12-11T14:19:51.412Z,7.10
2018-12-11T14:22:21.247Z,7.10
2018-12-11T14:24:50.962Z,7.00
2018-12-11T14:27:21.763Z,7.10
2018-12-11T14:29:51.847Z,7.00
2018-12-11T14:32:22.696Z,7.00
2018-12-11T14:34:53.381Z,7.00
2018-12-11T14:37:23.172Z,7.10
2018-12-11T14:39:52.956Z,7.10
2018-12-11T14:42:22.819Z,7.00
2018-12-11T14:44:52.720Z,7.00
2018-12-11T14:47:22.487Z,6.90
2018-12-11T14:49:52.518Z,6.80
2018-12-11T14:52:23.232Z,6.80
2018-12-11T14:54:53.063Z,6.80
2018-12-11T14:57:22.859Z,6.80
2018-12-11T14:59:52.789Z,6.80
2018-12-11T15:02:22.578Z,6.70
2018-12-11T15:04:52.727Z,6.70
2018-12-11T15:07:22.744Z,6.70
2018-12-11T15:09:52.903Z,6.50
2018-12-11T15:12:22.951Z,6.40
2018-12-11T15:14:52.777Z,6.40
2018-12-11T15:17:22.844Z,6.40
2018-12-11T15:19:52.802Z,6.40
2018-12-11T15:22:22.740Z,6.40
2018-12-11T15:24:52.428Z,6.40
2018-12-11T15:27:22.739Z,6.30
2018-12-11T15:29:52.560Z,6.30
2018-12-11T15:32:22.960Z,6.40
2018-12-11T15:34:52.967Z,6.30
2018-12-11T15:37:22.767Z,6.30
2018-12-11T15:39:52.871Z,6.30
2018-12-11T15:42:22.780Z,6.30
2018-12-11T15:44:52.558Z,6.20
2018-12-11T15:47:22.401Z,6.30
2018-12-11T15:49:52.105Z,6.30
2018-12-11T15:52:21.968Z,6.30
2018-12-11T15:54:51.738Z,6.30
2018-12-11T15:57:21.764Z,6.30
2018-12-11T15:59:52.335Z,6.30
2018-12-11T16:02:22.219Z,6.30
2018-12-11T16:04:52.126Z,6.30
2018-12-11T16:07:22.035Z,6.30
2018-12-11T16:09:51.829Z,6.20
2018-12-11T16:12:21.885Z,6.20
2018-12-11T16:14:51.891Z,6.20
2018-12-11T16:17:21.629Z,6.20
2018-12-11T16:19:51.559Z,6.20
2018-12-11T16:22:21.580Z,6.20
2018-12-11T16:24:52.525Z,6.20
2018-12-11T16:27:22.677Z,6.10
2018-12-11T16:29:52.947Z,6.10
2018-12-11T16:32:22.964Z,6.10
2018-12-11T16:34:53.836Z,6.10
2018-12-11T16:37:24.812Z,6.10
2018-12-11T16:39:54.642Z,6.10
2018-12-11T16:42:24.744Z,6.00
2018-12-11T16:44:54.473Z,6.00
2018-12-11T16:47:24.431Z,6.00
2018-12-11T16:49:54.157Z,6.00
2018-12-11T16:52:24.133Z,6.00
2018-12-11T16:54:54.025Z,6.00
2018-12-11T16:57:23.865Z,6.00
2018-12-11T16:59:54.970Z,6.00
2018-12-11T17:02:25.047Z,6.00
2018-12-11T17:04:55.105Z,6.00
2018-12-11T17:07:25.521Z,5.90
2018-12-11T17:09:55.514Z,6.00
2018-12-11T17:12:25.893Z,6.10
2018-12-11T17:14:56.957Z,6.00
2018-12-11T17:17:27.273Z,6.00
2018-12-11T17:19:57.213Z,6.00
2018-12-11T17:22:27.226Z,5.90
2018-12-11T17:24:58.081Z,5.90
2018-12-11T17:27:27.941Z,5.90
2018-12-11T17:29:57.748Z,6.00
2018-12-11T17:32:27.726Z,6.00
2018-12-11T17:34:57.675Z,6.00
2018-12-11T17:37:28.096Z,6.00
2018-12-11T17:39:58.007Z,6.00
2018-12-11T17:42:27.949Z,6.00
2018-12-11T17:44:57.737Z,6.00
2018-12-11T17:47:27.498Z,6.00
2018-12-11T17:49:57.709Z,5.90
2018-12-11T17:52:28.425Z,6.00
2018-12-11T17:54:58.188Z,5.90
2018-12-11T17:57:28.349Z,5.90
2018-12-11T17:59:58.148Z,5.90
2018-12-11T18:02:32.174Z,5.90
2018-12-11T18:05:02.856Z,5.90
2018-12-11T18:07:32.933Z,5.80
2018-12-11T18:10:02.727Z,5.80
2018-12-11T18:12:34.075Z,5.80
2018-12-11T18:15:05.089Z,5.80
2018-12-11T18:17:35.064Z,5.80
2018-12-11T18:20:06.482Z,5.80
2018-12-11T18:22:36.381Z,5.80
2018-12-11T18:25:06.604Z,5.80
2018-12-11T18:27:36.443Z,5.80
2018-12-11T18:30:08.146Z,5.90
2018-12-11T18:32:38.186Z,5.90
2018-12-11T18:35:09.290Z,5.80
2018-12-11T18:37:39.340Z,5.80
2018-12-11T18:40:10.602Z,5.80
2018-12-11T18:42:40.616Z,5.80
2018-12-11T18:45:11.350Z,5.80
2018-12-11T18:47:41.345Z,5.80
2018-12-11T18:50:11.523Z,5.80
2018-12-11T18:52:41.389Z,5.80
2018-12-11T18:55:11.480Z,5.70
2018-12-11T18:57:41.178Z,5.80
2018-12-11T19:00:11.641Z,5.90
2018-12-11T19:02:41.397Z,5.90
2018-12-11T19:05:11.180Z,5.90
2018-12-11T19:07:41.079Z,5.80
2018-12-11T19:10:10.938Z,5.80
2018-12-11T19:12:40.665Z,5.80
2018-12-11T19:15:10.770Z,5.80
2018-12-11T19:17:40.567Z,5.80
2018-12-11T19:20:10.723Z,5.80
2018-12-11T19:22:40.511Z,5.80
2018-12-11T19:25:16.548Z,5.80
2018-12-11T19:27:46.331Z,5.80
2018-12-11T19:30:16.062Z,5.80
2018-12-11T19:32:45.899Z,5.80
2018-12-11T19:35:15.949Z,5.80
2018-12-11T19:37:45.707Z,5.80
2018-12-11T19:40:15.432Z,5.90
2018-12-11T19:42:45.530Z,5.80
2018-12-11T19:45:15.463Z,5.90
2018-12-11T19:47:45.413Z,6.00
2018-12-11T19:50:15.155Z,6.00
2018-12-11T19:52:44.825Z,5.90
2018-12-11T19:55:14.649Z,5.80
2018-12-11T19:57:44.543Z,5.70
2018-12-11T20:00:14.471Z,5.60
2018-12-11T20:02:44.338Z,5.60
2018-12-11T20:05:14.219Z,5.50
2018-12-11T20:07:44.059Z,5.50
2018-12-11T20:10:16.818Z,5.60
2018-12-11T20:12:47.696Z,5.70
2018-12-11T20:15:17.551Z,5.70
2018-12-11T20:17:47.616Z,5.70
2018-12-11T20:20:26.079Z,5.60
2018-12-11T20:22:56.623Z,5.50
2018-12-11T20:25:27.034Z,5.50
2018-12-11T20:27:56.849Z,5.50
2018-12-11T20:30:26.708Z,5.40
2018-12-11T20:32:56.631Z,5.40
2018-12-11T20:35:26.568Z,5.30
2018-12-11T20:37:56.312Z,5.40
2018-12-11T20:40:26.124Z,5.40
2018-12-11T20:42:55.958Z,5.40
2018-12-11T20:45:25.832Z,5.40
2018-12-11T20:47:55.675Z,5.40
2018-12-11T20:50:25.701Z,5.40
2018-12-11T20:52:55.620Z,5.40
2018-12-11T20:55:25.468Z,5.30
2018-12-11T20:57:56.015Z,5.30
2018-12-11T21:00:28.562Z,5.20
2018-12-11T21:03:00.001Z,5.10
2018-12-11T21:05:30.289Z,5.10
2018-12-11T21:08:00.137Z,5.10
2018-12-11T21:10:29.953Z,5.10
2018-12-11T21:12:59.834Z,5.00
2018-12-11T21:15:29.900Z,5.10
2018-12-11T21:17:59.653Z,5.00
2018-12-11T21:20:29.413Z,5.00
2018-12-11T21:22:59.400Z,4.90
2018-12-11T21:25:29.201Z,4.80
2018-12-11T21:27:58.908Z,4.80
2018-12-11T21:30:28.999Z,4.80
2018-12-11T21:32:58.850Z,4.90
2018-12-11T21:35:28.791Z,4.80
2018-12-11T21:37:58.773Z,4.80
2018-12-11T21:40:29.064Z,4.70
2018-12-11T21:42:58.988Z,4.70
2018-12-11T21:45:28.827Z,4.70
2018-12-11T21:47:58.788Z,4.60
2018-12-11T21:50:28.686Z,4.60
2018-12-11T21:52:58.992Z,4.60
2018-12-11T21:55:28.972Z,4.70
2018-12-11T21:57:58.795Z,4.60
2018-12-11T22:00:28.751Z,4.60
2018-12-11T22:02:58.686Z,4.60
2018-12-11T22:05:28.726Z,4.70
2018-12-11T22:07:58.629Z,4.70
2018-12-11T22:10:28.505Z,4.60
2018-12-11T22:12:59.340Z,4.60
2018-12-11T22:15:29.186Z,4.50
2018-12-11T22:17:58.999Z,4.50
2018-12-11T22:20:28.691Z,4.50
2018-12-11T22:22:58.398Z,4.40
2018-12-11T22:25:28.361Z,4.40
2018-12-11T22:27:58.189Z,4.30
2018-12-11T22:30:28.041Z,4.30
2018-12-11T22:32:57.797Z,4.30
2018-12-11T22:35:27.633Z,4.30
2018-12-11T22:37:57.934Z,4.30
2018-12-11T22:40:27.980Z,4.30
2018-12-11T22:42:58.305Z,4.30
2018-12-11T22:45:28.673Z,4.40
2018-12-11T22:47:58.532Z,4.40
2018-12-11T22:50:29.251Z,4.30
2018-12-11T22:52:59.016Z,4.40
2018-12-11T22:55:28.737Z,4.30
2018-12-11T22:57:59.033Z,4.30
2018-12-11T23:00:29.049Z,4.20
2018-12-11T23:02:58.988Z,4.20
2018-12-11T23:05:29.035Z,4.20
2018-12-11T23:07:58.829Z,4.10
2018-12-11T23:10:28.702Z,4.10
2018-12-11T23:12:58.944Z,4.10
2018-12-11T23:15:28.880Z,4.10
2018-12-11T23:17:58.772Z,4.00
2018-12-11T23:20:28.644Z,4.00
2018-12-11T23:22:58.716Z,4.00
2018-12-11T23:25:28.496Z,3.90
2018-12-11T23:27:58.227Z,3.90
2018-12-11T23:30:28.016Z,3.80
2018-12-11T23:32:57.916Z,3.80
2018-12-11T23:35:27.971Z,3.70
2018-12-11T23:37:57.909Z,3.70
2018-12-11T23:40:27.780Z,3.60
2018-12-11T23:42:57.581Z,3.60
2018-12-11T23:45:27.616Z,3.60
2018-12-11T23:47:57.465Z,3.60
2018-12-11T23:50:27.373Z,3.50
2018-12-11T23:52:57.057Z,3.40
2018-12-11T23:55:27.030Z,3.30
2018-12-11T23:57:56.830Z,3.30
